createdAt,value
2022-11-01T00:02:10.433Z,9.41
2022-11-01T00:04:38.330Z,9.35
2022-11-01T00:07:06.258Z,9.61
2022-11-01T00:09:33.756Z,9.70
2022-11-01T00:12:01.150Z,9.61
2022-11-01T00:14:28.487Z,9.73
2022-11-01T00:16:56.079Z,9.65
2022-11-01T00:19:23.436Z,9.47
2022-11-01T00:21:50.755Z,9.42
2022-11-01T00:24:18.067Z,9.35
2022-11-01T00:26:45.622Z,9.02
2022-11-01T00:29:13.628Z,8.99
2022-11-01T00:31:41.137Z,9.03
2022-11-01T00:34:08.800Z,8.98
2022-11-01T00:36:36.869Z,8.99
2022-11-01T00:39:05.099Z,9.04
2022-11-01T00:41:32.469Z,9.10
2022-11-01T00:43:59.949Z,9.11
2022-11-01T00:46:27.537Z,9.30
2022-11-01T00:48:54.868Z,9.32
2022-11-01T00:51:22.293Z,9.18
2022-11-01T00:53:49.943Z,9.09
2022-11-01T00:56:17.276Z,9.28
2022-11-01T00:58:44.572Z,9.25
2022-11-01T01:01:12.017Z,9.12
2022-11-01T01:03:39.402Z,8.96
2022-11-01T01:06:06.834Z,8.75
2022-11-01T01:08:34.181Z,8.89
2022-11-01T01:11:01.554Z,8.70
2022-11-01T01:13:28.887Z,8.88
2022-11-01T01:15:57.364Z,8.74
2022-11-01T01:18:24.825Z,8.84
2022-11-01T01:20:59.403Z,9.04
2022-11-01T01:23:26.713Z,8.91
2022-11-01T01:25:54.015Z,8.87
2022-11-01T01:28:21.385Z,8.89
2022-11-01T01:30:48.735Z,8.77
2022-11-01T01:33:16.097Z,8.82
2022-11-01T01:35:43.428Z,8.88
2022-11-01T01:38:10.788Z,8.95
2022-11-01T01:40:38.140Z,8.74
2022-11-01T01:43:05.451Z,8.93
2022-11-01T01:45:40.831Z,9.06
2022-11-01T01:48:18.484Z,8.93
2022-11-01T01:50:49.662Z,8.97
2022-11-01T01:53:21.571Z,8.87
2022-11-01T01:55:51.298Z,8.92
2022-11-01T01:58:20.635Z,9.01
2022-11-01T02:00:48.213Z,9.02
2022-11-01T02:03:16.128Z,8.79
2022-11-01T02:05:50.214Z,9.02
2022-11-01T02:08:26.636Z,8.86
2022-11-01T02:11:07.512Z,8.92
2022-11-01T02:13:35.003Z,9.07
2022-11-01T02:16:39.002Z,8.98
2022-11-01T02:19:25.095Z,8.88
2022-11-01T02:22:11.014Z,8.90
2022-11-01T02:25:02.699Z,8.88
2022-11-01T02:27:41.974Z,9.05
2022-11-01T02:30:11.994Z,8.82
2022-11-01T02:33:06.477Z,8.69
2022-11-01T02:35:56.643Z,8.47
2022-11-01T02:38:38.177Z,8.76
2022-11-01T02:41:11.075Z,8.76
2022-11-01T02:43:46.067Z,8.96
2022-11-01T02:46:31.780Z,8.83
2022-11-01T02:48:59.309Z,8.76
2022-11-01T02:51:27.197Z,9.11
2022-11-01T02:53:54.627Z,9.04
2022-11-01T02:56:22.798Z,9.04
2022-11-01T02:58:52.419Z,9.12
2022-11-01T03:01:23.370Z,8.98
2022-11-01T03:03:53.452Z,8.78
2022-11-01T03:06:42.892Z,8.78
2022-11-01T03:09:12.435Z,8.69
2022-11-01T03:12:03.027Z,8.61
2022-11-01T03:14:32.401Z,8.50
2022-11-01T03:17:27.780Z,8.53
2022-11-01T03:20:06.161Z,8.61
2022-11-01T03:22:42.015Z,8.73
2022-11-01T03:25:42.733Z,8.81
2022-11-01T03:28:22.073Z,8.86
2022-11-01T03:30:57.272Z,9.02
2022-11-01T03:33:25.929Z,9.17
2022-11-01T03:35:55.529Z,9.32
2022-11-01T03:38:26.242Z,9.42
2022-11-01T03:41:01.191Z,9.55
2022-11-01T03:43:30.651Z,9.47
2022-11-01T03:45:58.144Z,9.31
2022-11-01T03:48:25.928Z,9.41
2022-11-01T03:50:56.259Z,9.30
2022-11-01T03:53:24.346Z,9.42
2022-11-01T03:55:52.366Z,9.42
2022-11-01T03:58:19.906Z,9.67
2022-11-01T04:00:47.682Z,9.64
2022-11-01T04:03:15.087Z,9.67
2022-11-01T04:05:42.671Z,9.70
2022-11-01T04:08:11.311Z,9.67
2022-11-01T04:10:38.718Z,9.53
2022-11-01T04:13:06.201Z,9.37
2022-11-01T04:15:52.065Z,9.40
2022-11-01T04:21:16.140Z,9.67
2022-11-01T04:23:44.408Z,9.91
2022-11-01T04:26:22.421Z,9.79
2022-11-01T04:28:59.032Z,9.74
2022-11-01T04:31:34.247Z,9.48
2022-11-01T04:34:02.719Z,9.60
2022-11-01T04:36:30.463Z,9.79
2022-11-01T04:38:58.433Z,10.02
2022-11-01T04:41:28.247Z,10.28
2022-11-01T04:43:58.552Z,10.38
2022-11-01T04:46:28.864Z,10.53
2022-11-01T04:48:56.560Z,10.60
2022-11-01T04:51:23.922Z,11.49
2022-11-01T04:53:51.374Z,11.98
2022-11-01T04:56:18.748Z,12.20
2022-11-01T04:58:46.706Z,12.14
2022-11-01T05:01:15.230Z,12.15
2022-11-01T05:03:43.167Z,12.96
2022-11-01T05:06:10.614Z,12.91
2022-11-01T05:08:37.983Z,13.21
2022-11-01T05:11:05.582Z,13.74
2022-11-01T05:13:33.042Z,14.00
2022-11-01T05:16:19.082Z,14.70
2022-11-01T05:18:47.030Z,14.85
2022-11-01T05:21:14.379Z,15.05
2022-11-01T05:23:41.697Z,15.44
2022-11-01T05:26:09.099Z,15.63
2022-11-01T05:28:36.435Z,15.82
2022-11-01T05:31:03.842Z,15.76
2022-11-01T05:33:31.364Z,15.70
2022-11-01T05:36:01.921Z,15.77
2022-11-01T05:38:29.250Z,15.83
2022-11-01T05:40:56.580Z,15.72
2022-11-01T05:43:23.996Z,15.79
2022-11-01T05:45:51.338Z,15.76
2022-11-01T05:48:18.676Z,15.50
2022-11-01T05:50:47.014Z,15.33
2022-11-01T05:53:14.780Z,15.25
2022-11-01T05:55:42.199Z,15.19
2022-11-01T05:58:09.768Z,14.97
2022-11-01T06:00:37.269Z,14.75
2022-11-01T06:03:05.328Z,14.54
2022-11-01T06:05:33.131Z,14.49
2022-11-01T06:08:04.337Z,14.45
2022-11-01T06:10:32.502Z,14.52
2022-11-01T06:13:00.678Z,14.43
2022-11-01T06:15:28.269Z,13.93
2022-11-01T06:17:57.793Z,14.19
2022-11-01T06:20:29.700Z,13.99
2022-11-01T06:22:57.969Z,13.94
2022-11-01T06:25:26.547Z,13.80
2022-11-01T06:27:56.893Z,13.61
2022-11-01T06:30:24.240Z,13.42
2022-11-01T06:32:51.556Z,13.43
2022-11-01T06:35:18.835Z,13.40
2022-11-01T06:37:46.797Z,13.32
2022-11-01T06:40:14.084Z,13.36
2022-11-01T06:42:46.352Z,13.31
2022-11-01T06:45:14.400Z,13.28
2022-11-01T06:47:45.851Z,13.24
2022-11-01T06:50:13.172Z,13.37
2022-11-01T06:52:40.524Z,13.26
2022-11-01T06:55:08.115Z,13.27
2022-11-01T06:57:35.480Z,13.27
2022-11-01T07:00:03.189Z,13.20
2022-11-01T07:02:30.582Z,13.10
2022-11-01T07:04:57.983Z,13.06
2022-11-01T07:07:25.328Z,13.15
2022-11-01T07:09:52.695Z,13.00
2022-11-01T07:12:20.030Z,12.85
2022-11-01T07:14:47.353Z,12.65
2022-11-01T07:17:14.666Z,12.78
2022-11-01T07:19:41.977Z,12.93
2022-11-01T07:22:09.523Z,13.02
2022-11-01T07:24:36.842Z,13.07
2022-11-01T07:27:04.161Z,13.28
2022-11-01T07:29:31.479Z,13.34
2022-11-01T07:31:58.759Z,13.34
2022-11-01T07:34:26.056Z,13.30
2022-11-01T07:36:53.636Z,13.28
2022-11-01T07:39:20.978Z,13.00
2022-11-01T07:41:51.164Z,13.17
2022-11-01T07:44:18.567Z,13.46
2022-11-01T07:46:45.885Z,13.57
2022-11-01T07:49:13.202Z,13.52
2022-11-01T07:51:41.608Z,13.58
2022-11-01T07:54:08.894Z,13.69
2022-11-01T07:56:36.232Z,13.60
2022-11-01T07:59:03.598Z,13.65
2022-11-01T08:01:31.035Z,13.68
2022-11-01T08:03:58.355Z,13.78
2022-11-01T08:06:25.720Z,13.96
2022-11-01T08:08:53.359Z,13.51
2022-11-01T08:11:20.793Z,13.53
2022-11-01T08:13:48.127Z,13.76
2022-11-01T08:16:18.195Z,14.01
2022-11-01T08:18:45.871Z,14.09
2022-11-01T08:21:18.535Z,14.21
2022-11-01T08:23:46.283Z,14.12
2022-11-01T08:26:14.185Z,14.13
2022-11-01T08:28:41.644Z,14.23
2022-11-01T08:31:11.309Z,14.33
2022-11-01T08:33:38.640Z,14.44
2022-11-01T08:36:06.201Z,14.51
2022-11-01T08:38:33.526Z,14.72
2022-11-01T08:41:00.971Z,14.90
2022-11-01T08:43:28.367Z,15.02
2022-11-01T08:45:55.822Z,15.20
2022-11-01T08:48:23.231Z,15.27
2022-11-01T08:50:50.672Z,15.41
2022-11-01T08:53:19.511Z,15.58
2022-11-01T08:55:49.775Z,15.64
2022-11-01T08:58:17.147Z,15.81
2022-11-01T09:00:44.590Z,15.95
2022-11-01T09:03:11.898Z,16.00
2022-11-01T09:05:39.266Z,16.03
2022-11-01T09:08:06.980Z,16.01
2022-11-01T09:10:34.627Z,15.92
2022-11-01T09:13:02.849Z,16.02
2022-11-01T09:15:30.469Z,16.12
2022-11-01T09:17:57.804Z,16.16
2022-11-01T09:20:26.455Z,16.22
2022-11-01T09:22:53.904Z,16.43
2022-11-01T09:25:21.299Z,16.42
2022-11-01T09:27:48.659Z,16.58
2022-11-01T09:30:16.070Z,16.68
2022-11-01T09:32:43.346Z,16.78
2022-11-01T09:35:10.678Z,16.94
2022-11-01T09:37:38.019Z,17.08
2022-11-01T09:40:06.021Z,17.21
2022-11-01T09:42:42.045Z,17.44
2022-11-01T09:45:18.331Z,17.57
2022-11-01T09:47:51.051Z,17.66
2022-11-01T09:50:25.743Z,17.99
2022-11-01T09:52:55.050Z,17.96
2022-11-01T09:55:40.935Z,18.16
2022-11-01T09:58:30.186Z,18.27
2022-11-01T10:01:17.244Z,18.60
2022-11-01T10:04:03.463Z,18.38
2022-11-01T10:06:43.027Z,18.27
2022-11-01T10:09:14.904Z,18.81
2022-11-01T10:12:00.900Z,19.96
2022-11-01T10:14:46.844Z,20.82
2022-11-01T10:17:16.318Z,22.04
2022-11-01T10:19:49.913Z,22.54
2022-11-01T10:22:19.867Z,22.31
2022-11-01T10:24:53.555Z,21.82
2022-11-01T10:27:34.499Z,21.32
2022-11-01T10:30:07.912Z,21.78
2022-11-01T10:32:44.709Z,22.03
2022-11-01T10:35:39.000Z,21.00
2022-11-01T10:38:59.153Z,20.40
2022-11-01T10:41:26.182Z,19.94
2022-11-01T10:44:01.307Z,20.24
2022-11-01T10:46:37.519Z,20.22
2022-11-01T10:49:12.446Z,20.62
2022-11-01T10:51:41.541Z,20.79
2022-11-01T10:54:19.532Z,20.15
2022-11-01T10:56:50.437Z,20.33
2022-11-01T10:59:40.635Z,20.32
2022-11-01T11:02:25.023Z,20.09
2022-11-01T11:04:52.824Z,20.69
2022-11-01T11:07:23.228Z,21.37
2022-11-01T11:09:51.618Z,21.68
2022-11-01T11:12:24.924Z,21.92
2022-11-01T11:14:57.890Z,21.82
2022-11-01T11:17:39.802Z,21.23
2022-11-01T11:20:10.628Z,20.88
2022-11-01T11:22:40.924Z,20.71
2022-11-01T11:25:15.602Z,20.29
2022-11-01T11:27:52.940Z,19.93
2022-11-01T11:30:34.779Z,19.56
2022-11-01T11:33:03.013Z,19.41
2022-11-01T11:35:32.760Z,19.06
2022-11-01T11:38:06.203Z,18.93
2022-11-01T11:40:42.765Z,18.90
2022-11-01T11:43:30.613Z,18.87
2022-11-01T11:46:15.268Z,18.90
2022-11-01T11:48:58.266Z,18.96
2022-11-01T11:51:30.376Z,18.90
2022-11-01T11:54:13.749Z,18.81
2022-11-01T11:56:41.209Z,18.72
2022-11-01T11:59:26.182Z,18.74
2022-11-01T12:02:00.012Z,18.63
2022-11-01T12:04:40.988Z,18.57
2022-11-01T12:07:51.082Z,18.55
2022-11-01T12:10:38.075Z,18.47
2022-11-01T12:13:22.379Z,18.36
2022-11-01T12:15:49.700Z,18.37
2022-11-01T12:18:18.765Z,18.37
2022-11-01T12:20:51.379Z,18.18
2022-11-01T12:23:32.897Z,17.95
2022-11-01T12:26:03.039Z,17.88
2022-11-01T12:28:39.984Z,17.66
2022-11-01T12:31:15.674Z,17.65
2022-11-01T12:34:05.177Z,17.57
2022-11-01T12:36:54.288Z,17.37
2022-11-01T12:39:27.803Z,17.20
2022-11-01T12:42:03.807Z,17.12
2022-11-01T12:44:38.096Z,17.07
2022-11-01T12:47:16.818Z,17.03
2022-11-01T12:49:59.204Z,17.10
2022-11-01T12:52:36.832Z,17.25
2022-11-01T12:55:22.088Z,17.35
2022-11-01T12:57:49.408Z,17.48
2022-11-01T13:00:17.775Z,17.48
2022-11-01T13:03:03.734Z,17.52
2022-11-01T13:05:53.865Z,17.53
2022-11-01T13:08:55.115Z,17.37
2022-11-01T13:11:45.403Z,17.28
2022-11-01T13:14:35.205Z,17.13
2022-11-01T13:17:10.634Z,17.07
2022-11-01T13:19:47.696Z,17.19
2022-11-01T13:22:36.109Z,17.91
2022-11-01T13:25:30.244Z,19.23
2022-11-01T13:28:16.537Z,20.08
2022-11-01T13:31:00.941Z,20.86
2022-11-01T13:33:37.619Z,21.45
2022-11-01T13:36:18.496Z,21.88
2022-11-01T13:39:01.269Z,22.17
2022-11-01T13:41:36.655Z,22.22
2022-11-01T13:44:13.322Z,21.40
2022-11-01T13:47:03.848Z,21.29
2022-11-01T13:50:02.847Z,20.47
2022-11-01T13:52:31.674Z,20.06
2022-11-01T13:54:59.149Z,19.84
2022-11-01T13:57:27.467Z,19.55
2022-11-01T13:59:59.633Z,19.40
2022-11-01T14:02:27.064Z,19.35
2022-11-01T14:05:09.130Z,19.22
2022-11-01T14:07:57.312Z,19.23
2022-11-01T14:10:30.543Z,18.91
2022-11-01T14:12:58.502Z,18.69
2022-11-01T14:15:29.478Z,18.58
2022-11-01T14:18:05.063Z,18.44
2022-11-01T14:20:35.092Z,18.23
2022-11-01T14:23:31.670Z,18.27
2022-11-01T14:26:21.143Z,18.18
2022-11-01T14:28:50.406Z,17.94
2022-11-01T14:31:19.260Z,17.71
2022-11-01T14:33:48.457Z,17.33
2022-11-01T14:36:17.908Z,17.21
2022-11-01T14:38:54.391Z,17.16
2022-11-01T14:41:23.502Z,17.09
2022-11-01T14:44:05.892Z,16.95
2022-11-01T14:46:37.005Z,16.93
2022-11-01T14:49:18.369Z,16.86
2022-11-01T14:51:52.592Z,16.82
2022-11-01T14:54:28.891Z,16.85
2022-11-01T14:56:57.764Z,16.80
2022-11-01T14:59:26.354Z,16.63
2022-11-01T15:02:02.447Z,16.66
2022-11-01T15:04:33.013Z,16.53
2022-11-01T15:07:01.196Z,16.44
2022-11-01T15:09:30.487Z,16.42
2022-11-01T15:12:07.281Z,16.33
2022-11-01T15:14:41.545Z,16.12
2022-11-01T15:17:21.442Z,15.91
2022-11-01T15:19:52.151Z,15.83
2022-11-01T15:22:25.238Z,15.62
2022-11-01T15:25:00.591Z,15.62
2022-11-01T15:27:43.501Z,15.55
2022-11-01T15:30:21.419Z,15.76
2022-11-01T15:33:10.332Z,15.74
2022-11-01T15:35:37.625Z,15.65
2022-11-01T15:38:13.903Z,15.54
2022-11-01T15:40:44.412Z,15.39
2022-11-01T15:43:18.034Z,15.17
2022-11-01T15:45:55.242Z,15.01
2022-11-01T15:48:28.528Z,14.81
2022-11-01T15:51:00.608Z,14.58
2022-11-01T15:53:30.396Z,14.52
2022-11-01T15:56:08.267Z,14.42
2022-11-01T15:58:57.449Z,14.33
2022-11-01T16:01:25.554Z,14.15
2022-11-01T16:04:06.376Z,14.17
2022-11-01T16:06:41.638Z,14.23
2022-11-01T16:09:17.742Z,14.18
2022-11-01T16:11:46.600Z,14.04
2022-11-01T16:14:36.441Z,13.99
2022-11-01T16:17:36.119Z,13.94
2022-11-01T16:20:07.652Z,13.98
2022-11-01T16:22:42.329Z,13.85
2022-11-01T16:25:10.163Z,13.56
2022-11-01T16:28:05.359Z,13.38
2022-11-01T16:30:45.458Z,13.25
2022-11-01T16:33:27.750Z,13.15
2022-11-01T16:35:56.250Z,13.01
2022-11-01T16:38:32.434Z,12.80
2022-11-01T16:41:04.545Z,12.66
2022-11-01T16:43:33.275Z,12.63
2022-11-01T16:46:00.860Z,12.59
2022-11-01T16:48:31.239Z,12.58
2022-11-01T16:50:59.659Z,12.66
2022-11-01T16:53:30.273Z,12.59
2022-11-01T16:56:23.174Z,12.52
2022-11-01T16:58:56.051Z,12.46
2022-11-01T17:01:27.342Z,12.29
2022-11-01T17:03:59.663Z,12.02
2022-11-01T17:06:27.171Z,11.91
2022-11-01T17:08:55.451Z,11.94
2022-11-01T17:11:24.046Z,11.55
2022-11-01T17:13:51.426Z,11.30
2022-11-01T17:16:24.539Z,11.34
2022-11-01T17:18:54.536Z,11.35
2022-11-01T17:21:22.408Z,11.17
2022-11-01T17:23:51.043Z,11.21
2022-11-01T17:26:19.264Z,11.40
2022-11-01T17:28:51.323Z,11.16
2022-11-01T17:31:19.686Z,11.04
2022-11-01T17:33:46.992Z,10.98
2022-11-01T17:36:15.755Z,10.91
2022-11-01T17:38:44.833Z,11.00
2022-11-01T17:41:16.752Z,11.16
2022-11-01T17:43:44.254Z,11.36
2022-11-01T17:46:17.720Z,11.05
2022-11-01T17:48:45.071Z,10.67
2022-11-01T17:51:12.430Z,10.37
2022-11-01T17:53:42.049Z,10.24
2022-11-01T17:56:09.896Z,10.18
2022-11-01T17:58:37.614Z,10.21
2022-11-01T18:01:05.370Z,10.13
2022-11-01T18:03:32.713Z,10.27
2022-11-01T18:06:00.411Z,10.17
2022-11-01T18:08:28.781Z,10.12
2022-11-01T18:11:20.835Z,9.98
2022-11-01T18:14:03.724Z,9.97
2022-11-01T18:16:40.080Z,9.94
2022-11-01T18:19:37.371Z,9.83
2022-11-01T18:22:16.602Z,9.74
2022-11-01T18:24:51.196Z,9.62
2022-11-01T18:27:24.288Z,9.74
2022-11-01T18:29:52.349Z,9.92
2022-11-01T18:32:39.444Z,9.83
2022-11-01T18:35:28.933Z,9.62
2022-11-01T18:38:14.817Z,9.63
2022-11-01T18:40:42.064Z,9.89
2022-11-01T18:43:09.573Z,9.91
2022-11-01T18:45:57.791Z,10.20
2022-11-01T18:48:29.637Z,9.83
2022-11-01T18:51:05.944Z,9.48
2022-11-01T18:53:34.592Z,9.28
2022-11-01T18:56:25.592Z,9.10
2022-11-01T18:58:54.030Z,9.02
2022-11-01T19:01:32.588Z,8.99
2022-11-01T19:04:19.755Z,8.90
2022-11-01T19:06:46.824Z,8.98
2022-11-01T19:09:29.045Z,8.94
2022-11-01T19:12:23.897Z,8.81
2022-11-01T19:14:59.930Z,8.75
2022-11-01T19:17:33.875Z,8.68
2022-11-01T19:20:00.811Z,8.84
2022-11-01T19:22:40.011Z,8.83
2022-11-01T19:25:19.806Z,8.92
2022-11-01T19:27:53.811Z,8.68
2022-11-01T19:30:28.931Z,8.42
2022-11-01T19:33:06.896Z,8.29
2022-11-01T19:35:33.820Z,8.46
2022-11-01T19:38:00.949Z,8.55
2022-11-01T19:40:34.327Z,8.82
2022-11-01T19:43:16.900Z,8.78
2022-11-01T19:45:52.713Z,8.52
2022-11-01T19:48:30.074Z,8.20
2022-11-01T19:50:57.537Z,8.19
2022-11-01T19:53:40.180Z,8.13
2022-11-01T19:56:10.230Z,8.13
2022-11-01T19:58:44.138Z,8.39
2022-11-01T20:01:17.261Z,8.53
2022-11-01T20:03:57.355Z,8.05
2022-11-01T20:06:27.321Z,7.63
2022-11-01T20:08:57.960Z,7.56
2022-11-01T20:11:24.908Z,7.53
2022-11-01T20:13:51.855Z,7.63
2022-11-01T20:16:18.780Z,7.66
2022-11-01T20:18:45.717Z,7.68
2022-11-01T20:21:12.712Z,7.63
2022-11-01T20:23:39.633Z,7.66
2022-11-01T20:26:06.606Z,7.71
2022-11-01T20:28:33.814Z,7.82
2022-11-01T20:31:00.843Z,7.76
2022-11-01T20:33:27.840Z,7.74
2022-11-01T20:35:54.926Z,7.48
2022-11-01T20:38:21.946Z,7.47
2022-11-01T20:40:48.967Z,7.41
2022-11-01T20:43:15.948Z,7.19
2022-11-01T20:45:42.946Z,7.29
2022-11-01T20:48:10.469Z,7.13
2022-11-01T20:50:37.519Z,7.30
2022-11-01T20:53:08.426Z,7.22
2022-11-01T20:55:35.660Z,7.34
2022-11-01T20:58:03.838Z,7.25
2022-11-01T21:00:31.811Z,7.11
2022-11-01T21:03:01.478Z,7.35
2022-11-01T21:05:30.927Z,7.34
2022-11-01T21:08:14.799Z,7.16
2022-11-01T21:10:43.206Z,7.02
2022-11-01T21:13:30.214Z,6.81
2022-11-01T21:16:02.401Z,6.74
2022-11-01T21:18:36.625Z,6.53
2022-11-01T21:21:15.779Z,6.87
2022-11-01T21:23:46.199Z,6.77
2022-11-01T21:26:20.672Z,6.68
2022-11-01T21:29:04.082Z,6.75
2022-11-01T21:31:34.835Z,6.74
2022-11-01T21:34:10.753Z,6.48
2022-11-01T21:36:43.316Z,6.28
2022-11-01T21:39:15.035Z,6.15
2022-11-01T21:41:45.872Z,6.12
2022-11-01T21:44:19.026Z,6.05
2022-11-01T21:46:49.467Z,5.99
2022-11-01T21:49:31.464Z,6.15
2022-11-01T21:52:02.416Z,6.11
2022-11-01T21:54:35.960Z,6.02
2022-11-01T21:57:05.363Z,5.96
2022-11-01T21:59:32.984Z,5.96
2022-11-01T22:02:01.371Z,5.95
2022-11-01T22:04:30.537Z,6.10
2022-11-01T22:07:03.779Z,6.12
2022-11-01T22:09:32.235Z,6.11
2022-11-01T22:11:59.885Z,6.17
2022-11-01T22:14:26.861Z,6.32
2022-11-01T22:16:53.853Z,6.15
2022-11-01T22:19:21.011Z,5.95
2022-11-01T22:21:47.908Z,5.82
2022-11-01T22:24:15.248Z,5.67
2022-11-01T22:26:42.539Z,5.78
2022-11-01T22:29:09.909Z,5.87
2022-11-01T22:31:37.217Z,6.18
2022-11-01T22:34:04.585Z,6.06
2022-11-01T22:36:35.360Z,5.95
2022-11-01T22:39:12.257Z,6.02
2022-11-01T22:41:40.927Z,5.89
2022-11-01T22:44:14.343Z,5.74
2022-11-01T22:46:41.566Z,5.45
2022-11-01T22:49:17.119Z,5.36
2022-11-01T22:51:56.189Z,5.44
2022-11-01T22:54:30.471Z,5.53
2022-11-01T22:57:09.866Z,5.61
2022-11-01T22:59:45.565Z,5.59
2022-11-01T23:02:30.405Z,5.43
2022-11-01T23:05:06.623Z,5.32
2022-11-01T23:07:38.825Z,5.47
2022-11-01T23:10:22.656Z,5.55
2022-11-01T23:13:10.934Z,5.30
2022-11-01T23:15:38.248Z,5.52
2022-11-01T23:18:20.048Z,5.71
2022-11-01T23:20:54.437Z,5.57
2022-11-01T23:23:22.290Z,5.60
2022-11-01T23:25:49.764Z,5.63
2022-11-01T23:28:17.158Z,5.34
2022-11-01T23:30:45.716Z,5.19
2022-11-01T23:33:14.605Z,5.40
2022-11-01T23:35:42.537Z,5.17
2022-11-01T23:38:23.424Z,5.08
2022-11-01T23:40:53.861Z,5.33
2022-11-01T23:43:33.207Z,5.40
2022-11-01T23:46:01.406Z,5.47
2022-11-01T23:48:28.962Z,5.61
2022-11-01T23:50:56.734Z,5.26
2022-11-01T23:53:35.798Z,5.26
2022-11-01T23:56:07.408Z,4.90
2022-11-01T23:58:36.115Z,4.88
